EWG1UB GMMN-LPMA
Flight info
| Callsign | EWG1UB |
|---|---|
| Flight time | 1h 33m |
| Altitude | 36000 |
| Route | ODAXA UH899 IBALU DCT SUBAL/N0454F350 DCT LIDRO |
| Aircraft | A320/M-SDE3FGHIRWY/LB1 |
Departure
| Time | 2026-05-04 14:55 |
|---|---|
| Airport | Mohammed V International Airport (GMMN) |
Arrival
| Time | 2026-05-04 16:28 |
|---|---|
| Airport | Cristiano Ronaldo International Airport (LPMA) |
| Time | Latitude | Longitude | Altitude | Speed | Heading |
|---|---|---|---|---|---|
| 2026-05-04 14:39 | 33.35746 | -7.57826 | 659 ft | 0 kts | 165° |
| 2026-05-04 14:40 | 33.35746 | -7.57827 | 656 ft | 0 kts | 165° |
| 2026-05-04 14:47 | 33.35747 | -7.57827 | 655 ft | 0 kts | 165° |
| 2026-05-04 14:52 | 33.35714 | -7.57820 | 655 ft | 13 kts | 179° |
| 2026-05-04 14:52 | 33.35634 | -7.57840 | 658 ft | 11 kts | 242° |
| 2026-05-04 14:52 | 33.35615 | -7.57922 | 659 ft | 10 kts | 255° |
| 2026-05-04 14:52 | 33.35599 | -7.57993 | 659 ft | 8 kts | 255° |
| 2026-05-04 14:53 | 33.35595 | -7.58008 | 658 ft | 6 kts | 251° |
| 2026-05-04 14:53 | 33.35475 | -7.57991 | 656 ft | 25 kts | 163° |
| 2026-05-04 14:53 | 33.35325 | -7.57946 | 657 ft | 18 kts | 181° |
| 2026-05-04 14:53 | 33.35247 | -7.58031 | 657 ft | 15 kts | 251° |
| 2026-05-04 14:54 | 33.35220 | -7.58145 | 657 ft | 13 kts | 253° |
| 2026-05-04 14:54 | 33.35197 | -7.58238 | 658 ft | 10 kts | 253° |
| 2026-05-04 14:54 | 33.35224 | -7.58267 | 659 ft | 6 kts | 343° |
| 2026-05-04 14:54 | 33.35420 | -7.58333 | 657 ft | 63 kts | 345° |
| 2026-05-04 14:55 | 33.36052 | -7.58547 | 652 ft | 123 kts | 344° |
| 2026-05-04 14:55 | 33.37023 | -7.58882 | 707 ft | 162 kts | 344° |
| 2026-05-04 14:55 | 33.38110 | -7.59280 | 1325 ft | 166 kts | 343° |
| 2026-05-04 14:55 | 33.39205 | -7.59801 | 1879 ft | 172 kts | 343° |
| 2026-05-04 14:56 | 33.40418 | -7.60244 | 2187 ft | 195 kts | 343° |
| 2026-05-04 14:56 | 33.41736 | -7.60939 | 2586 ft | 216 kts | 332° |
| 2026-05-04 14:56 | 33.42953 | -7.62040 | 3199 ft | 230 kts | 316° |
| 2026-05-04 14:56 | 33.43982 | -7.63561 | 3920 ft | 239 kts | 304° |
| 2026-05-04 14:57 | 33.44908 | -7.65240 | 4677 ft | 245 kts | 304° |
| 2026-05-04 14:57 | 33.45849 | -7.66938 | 4935 ft | 244 kts | 304° |
| 2026-05-04 14:57 | 33.46786 | -7.68626 | 5000 ft | 242 kts | 304° |
| 2026-05-04 14:57 | 33.47722 | -7.70310 | 5136 ft | 246 kts | 304° |
| 2026-05-04 14:58 | 33.48665 | -7.72004 | 6063 ft | 242 kts | 303° |
| 2026-05-04 14:58 | 33.49598 | -7.73679 | 6952 ft | 242 kts | 302° |
| 2026-05-04 14:58 | 33.50539 | -7.75375 | 7708 ft | 246 kts | 302° |
| 2026-05-04 14:58 | 33.51496 | -7.77102 | 8452 ft | 251 kts | 301° |
| 2026-05-04 14:59 | 33.52463 | -7.78845 | 9293 ft | 252 kts | 301° |
| 2026-05-04 14:59 | 33.53441 | -7.80605 | 10031 ft | 256 kts | 300° |
| 2026-05-04 14:59 | 33.55441 | -7.84220 | 11411 ft | 263 kts | 301° |
| 2026-05-04 15:00 | 33.56456 | -7.86057 | 12114 ft | 265 kts | 300° |
| 2026-05-04 15:00 | 33.57468 | -7.87888 | 12830 ft | 267 kts | 300° |
| 2026-05-04 15:00 | 33.58612 | -7.89667 | 13525 ft | 273 kts | 312° |
| 2026-05-04 15:01 | 33.61897 | -7.92635 | 13954 ft | 318 kts | 321° |
| 2026-05-04 15:01 | 33.63779 | -7.94208 | 14065 ft | 340 kts | 322° |
| 2026-05-04 15:01 | 33.65773 | -7.95868 | 14263 ft | 356 kts | 322° |
| 2026-05-04 15:01 | 33.67835 | -7.97585 | 14750 ft | 362 kts | 322° |
| 2026-05-04 15:02 | 33.69913 | -7.99318 | 15355 ft | 365 kts | 321° |
| 2026-05-04 15:02 | 33.72008 | -8.01069 | 15981 ft | 368 kts | 321° |
| 2026-05-04 15:02 | 33.74083 | -8.02812 | 16561 ft | 370 kts | 321° |
| 2026-05-04 15:02 | 33.76204 | -8.04601 | 17140 ft | 373 kts | 321° |
| 2026-05-04 15:03 | 33.78337 | -8.06401 | 17720 ft | 376 kts | 320° |
| 2026-05-04 15:03 | 33.80485 | -8.08214 | 18294 ft | 378 kts | 320° |
| 2026-05-04 15:03 | 33.82647 | -8.10042 | 18789 ft | 381 kts | 320° |
| 2026-05-04 15:03 | 33.84822 | -8.11878 | 19274 ft | 383 kts | 320° |
| 2026-05-04 15:04 | 33.87015 | -8.13728 | 19759 ft | 385 kts | 320° |
| 2026-05-04 15:04 | 33.89216 | -8.15585 | 20244 ft | 387 kts | 320° |
| 2026-05-04 15:04 | 33.91403 | -8.17434 | 20723 ft | 389 kts | 319° |
| 2026-05-04 15:04 | 33.93620 | -8.19314 | 21190 ft | 391 kts | 319° |
| 2026-05-04 15:05 | 33.95856 | -8.21216 | 21696 ft | 393 kts | 319° |
| 2026-05-04 15:05 | 33.98098 | -8.23126 | 22164 ft | 395 kts | 319° |
| 2026-05-04 15:05 | 34.00218 | -8.25212 | 22598 ft | 392 kts | 310° |
| 2026-05-04 15:05 | 34.02146 | -8.27536 | 23041 ft | 393 kts | 309° |
| 2026-05-04 15:06 | 34.04087 | -8.29880 | 23472 ft | 395 kts | 309° |
| 2026-05-04 15:06 | 34.06038 | -8.32232 | 23869 ft | 397 kts | 309° |
| 2026-05-04 15:06 | 34.08000 | -8.34594 | 24238 ft | 399 kts | 310° |
| 2026-05-04 15:07 | 34.11916 | -8.39312 | 24970 ft | 401 kts | 310° |
| 2026-05-04 15:07 | 34.13896 | -8.41700 | 25325 ft | 403 kts | 309° |
| 2026-05-04 15:07 | 34.15877 | -8.44097 | 25676 ft | 404 kts | 309° |
| 2026-05-04 15:07 | 34.17862 | -8.46503 | 26021 ft | 405 kts | 309° |
| 2026-05-04 15:08 | 34.19859 | -8.48922 | 26420 ft | 406 kts | 309° |
| 2026-05-04 15:08 | 34.21851 | -8.51341 | 26800 ft | 406 kts | 309° |
| 2026-05-04 15:08 | 34.23847 | -8.53768 | 27157 ft | 407 kts | 309° |
| 2026-05-04 15:08 | 34.25851 | -8.56204 | 27497 ft | 409 kts | 309° |
| 2026-05-04 15:09 | 34.27859 | -8.58648 | 27824 ft | 410 kts | 309° |
| 2026-05-04 15:09 | 34.29875 | -8.61104 | 28142 ft | 411 kts | 309° |
| 2026-05-04 15:09 | 34.31867 | -8.63535 | 28447 ft | 413 kts | 309° |
| 2026-05-04 15:10 | 34.35929 | -8.68495 | 29045 ft | 415 kts | 309° |
| 2026-05-04 15:10 | 34.37967 | -8.70986 | 29335 ft | 417 kts | 309° |
| 2026-05-04 15:10 | 34.42058 | -8.75991 | 29957 ft | 418 kts | 308° |
| 2026-05-04 15:11 | 34.43898 | -8.78672 | 30334 ft | 409 kts | 299° |
| 2026-05-04 15:11 | 34.45313 | -8.81623 | 30686 ft | 402 kts | 291° |
| 2026-05-04 15:11 | 34.46378 | -8.84743 | 31002 ft | 400 kts | 288° |
| 2026-05-04 15:11 | 34.47395 | -8.87833 | 31283 ft | 399 kts | 288° |
| 2026-05-04 15:12 | 34.48426 | -8.90960 | 31567 ft | 399 kts | 288° |
| 2026-05-04 15:12 | 34.49455 | -8.94081 | 31870 ft | 399 kts | 288° |
| 2026-05-04 15:12 | 34.50485 | -8.97206 | 32162 ft | 399 kts | 288° |
| 2026-05-04 15:12 | 34.51517 | -9.00327 | 32455 ft | 398 kts | 288° |
| 2026-05-04 15:13 | 34.52545 | -9.03443 | 32743 ft | 398 kts | 287° |
| 2026-05-04 15:13 | 34.53574 | -9.06567 | 33032 ft | 398 kts | 287° |
| 2026-05-04 15:13 | 34.54603 | -9.09681 | 33318 ft | 398 kts | 287° |
| 2026-05-04 15:13 | 34.55628 | -9.12800 | 33602 ft | 397 kts | 287° |
| 2026-05-04 15:14 | 34.56636 | -9.15876 | 33888 ft | 397 kts | 287° |
| 2026-05-04 15:14 | 34.57654 | -9.18995 | 34156 ft | 397 kts | 287° |
| 2026-05-04 15:14 | 34.58672 | -9.22113 | 34409 ft | 397 kts | 287° |
| 2026-05-04 15:14 | 34.59691 | -9.25225 | 34681 ft | 396 kts | 287° |
| 2026-05-04 15:15 | 34.60363 | -9.27280 | 34861 ft | 395 kts | 287° |
| 2026-05-04 15:15 | 34.61374 | -9.30382 | 35131 ft | 394 kts | 287° |
| 2026-05-04 15:15 | 34.62380 | -9.33472 | 35389 ft | 393 kts | 287° |
| 2026-05-04 15:16 | 34.64381 | -9.39627 | 35967 ft | 390 kts | 287° |
| 2026-05-04 15:16 | 34.65374 | -9.42684 | 36222 ft | 388 kts | 287° |
| 2026-05-04 15:16 | 34.67348 | -9.48771 | 36666 ft | 386 kts | 286° |
| 2026-05-04 15:17 | 34.68331 | -9.51806 | 36856 ft | 386 kts | 286° |
| 2026-05-04 15:17 | 34.70295 | -9.57881 | 37110 ft | 386 kts | 286° |
| 2026-05-04 15:17 | 34.71275 | -9.60923 | 37118 ft | 386 kts | 286° |
| 2026-05-04 15:18 | 34.73221 | -9.66973 | 37117 ft | 386 kts | 286° |
| 2026-05-04 15:19 | 34.76157 | -9.76098 | 37120 ft | 386 kts | 286° |
| 2026-05-04 15:19 | 34.79072 | -9.85186 | 37119 ft | 386 kts | 286° |
| 2026-05-04 15:20 | 34.81018 | -9.91281 | 37117 ft | 386 kts | 286° |
| 2026-05-04 15:20 | 34.82963 | -9.97387 | 37111 ft | 387 kts | 286° |
| 2026-05-04 15:21 | 34.84910 | -10.03494 | 37146 ft | 387 kts | 287° |
| 2026-05-04 15:22 | 34.87815 | -10.12605 | 37142 ft | 386 kts | 286° |
| 2026-05-04 15:22 | 34.90707 | -10.21760 | 37116 ft | 385 kts | 286° |
| 2026-05-04 15:23 | 34.92630 | -10.27864 | 37113 ft | 386 kts | 286° |
| 2026-05-04 15:23 | 34.94561 | -10.33984 | 37111 ft | 387 kts | 286° |
| 2026-05-04 15:24 | 34.98416 | -10.46216 | 37113 ft | 387 kts | 286° |
| 2026-05-04 15:25 | 35.00340 | -10.52351 | 37116 ft | 387 kts | 286° |
| 2026-05-04 15:26 | 35.03199 | -10.61530 | 37111 ft | 388 kts | 286° |
| 2026-05-04 15:26 | 35.06084 | -10.70771 | 37135 ft | 388 kts | 286° |
| 2026-05-04 15:27 | 35.08949 | -10.80014 | 37132 ft | 388 kts | 286° |
| 2026-05-04 15:28 | 35.11813 | -10.89253 | 37132 ft | 387 kts | 286° |
| 2026-05-04 15:29 | 35.14663 | -10.98453 | 37128 ft | 388 kts | 286° |
| 2026-05-04 15:30 | 35.21303 | -11.20111 | 37127 ft | 389 kts | 286° |
| 2026-05-04 15:31 | 35.24135 | -11.29370 | 37152 ft | 388 kts | 286° |
| 2026-05-04 15:32 | 35.28823 | -11.44851 | 37140 ft | 388 kts | 286° |
| 2026-05-04 15:34 | 35.33509 | -11.60303 | 37140 ft | 388 kts | 286° |
| 2026-05-04 15:34 | 35.36310 | -11.69612 | 37134 ft | 388 kts | 286° |
| 2026-05-04 15:35 | 35.39107 | -11.78917 | 37138 ft | 388 kts | 286° |
| 2026-05-04 15:36 | 35.41876 | -11.88198 | 37139 ft | 388 kts | 286° |
| 2026-05-04 15:36 | 35.43736 | -11.94412 | 37137 ft | 388 kts | 286° |
| 2026-05-04 15:37 | 35.45592 | -12.00631 | 37142 ft | 388 kts | 286° |
| 2026-05-04 15:37 | 35.47440 | -12.06853 | 37132 ft | 388 kts | 286° |
| 2026-05-04 15:38 | 35.49286 | -12.13087 | 37127 ft | 389 kts | 286° |
| 2026-05-04 15:38 | 35.51123 | -12.19296 | 37134 ft | 389 kts | 286° |
| 2026-05-04 15:39 | 35.52916 | -12.25577 | 37134 ft | 387 kts | 280° |
| 2026-05-04 15:39 | 35.53155 | -12.32077 | 37133 ft | 382 kts | 259° |
| 2026-05-04 15:40 | 35.52324 | -12.35166 | 37142 ft | 384 kts | 244° |
| 2026-05-04 15:40 | 35.49646 | -12.40812 | 37122 ft | 386 kts | 242° |
| 2026-05-04 15:41 | 35.46868 | -12.46459 | 37122 ft | 387 kts | 242° |
| 2026-05-04 15:41 | 35.44069 | -12.52111 | 37131 ft | 388 kts | 242° |
| 2026-05-04 15:42 | 35.41274 | -12.57777 | 37134 ft | 388 kts | 242° |
| 2026-05-04 15:42 | 35.38477 | -12.63450 | 37135 ft | 389 kts | 242° |
| 2026-05-04 15:43 | 35.35673 | -12.69117 | 37140 ft | 389 kts | 242° |
| 2026-05-04 15:43 | 35.32863 | -12.74782 | 37142 ft | 389 kts | 242° |
| 2026-05-04 15:44 | 35.30056 | -12.80448 | 37148 ft | 389 kts | 242° |
| 2026-05-04 15:44 | 35.27260 | -12.86078 | 37151 ft | 390 kts | 242° |
| 2026-05-04 15:45 | 35.24439 | -12.91750 | 37149 ft | 390 kts | 241° |
| 2026-05-04 15:45 | 35.21606 | -12.97420 | 37146 ft | 390 kts | 241° |
| 2026-05-04 15:46 | 35.18776 | -13.03084 | 37148 ft | 390 kts | 241° |
| 2026-05-04 15:46 | 35.15960 | -13.08714 | 37152 ft | 390 kts | 241° |
| 2026-05-04 15:47 | 35.13133 | -13.14377 | 37141 ft | 390 kts | 241° |
| 2026-05-04 15:47 | 35.10296 | -13.20042 | 37143 ft | 391 kts | 241° |
| 2026-05-04 15:48 | 35.07449 | -13.25702 | 37150 ft | 391 kts | 241° |
| 2026-05-04 15:48 | 35.03169 | -13.34182 | 37150 ft | 391 kts | 241° |
| 2026-05-04 15:49 | 35.00316 | -13.39841 | 37123 ft | 391 kts | 240° |
| 2026-05-04 15:49 | 34.97481 | -13.45452 | 37139 ft | 390 kts | 240° |
| 2026-05-04 15:50 | 34.94624 | -13.51090 | 37151 ft | 390 kts | 240° |
| 2026-05-04 15:50 | 34.91769 | -13.56721 | 37154 ft | 390 kts | 240° |
| 2026-05-04 15:51 | 34.88915 | -13.62346 | 37153 ft | 390 kts | 240° |
| 2026-05-04 15:51 | 34.86061 | -13.67967 | 37151 ft | 390 kts | 240° |
| 2026-05-04 15:52 | 34.83200 | -13.73588 | 37152 ft | 390 kts | 240° |
| 2026-05-04 15:52 | 34.80353 | -13.79157 | 37156 ft | 390 kts | 240° |
| 2026-05-04 15:53 | 34.77484 | -13.84768 | 37156 ft | 390 kts | 240° |
| 2026-05-04 15:53 | 34.74615 | -13.90382 | 37143 ft | 390 kts | 240° |
| 2026-05-04 15:54 | 34.71741 | -13.95989 | 37144 ft | 391 kts | 240° |
| 2026-05-04 15:54 | 34.68875 | -14.01563 | 37145 ft | 391 kts | 240° |
| 2026-05-04 15:55 | 34.65990 | -14.07177 | 37143 ft | 392 kts | 239° |
| 2026-05-04 15:55 | 34.63096 | -14.12794 | 37147 ft | 392 kts | 239° |
| 2026-05-04 15:56 | 34.60195 | -14.18416 | 37139 ft | 392 kts | 239° |
| 2026-05-04 15:56 | 34.57294 | -14.24038 | 37134 ft | 393 kts | 239° |
| 2026-05-04 15:57 | 34.54404 | -14.29628 | 37132 ft | 394 kts | 239° |
| 2026-05-04 15:57 | 34.51488 | -14.35258 | 37138 ft | 394 kts | 239° |
| 2026-05-04 15:58 | 34.48563 | -14.40894 | 37139 ft | 395 kts | 239° |
| 2026-05-04 15:58 | 34.45632 | -14.46527 | 37140 ft | 395 kts | 239° |
| 2026-05-04 15:59 | 34.42694 | -14.52162 | 37141 ft | 395 kts | 239° |
| 2026-05-04 15:59 | 34.39768 | -14.57758 | 37138 ft | 395 kts | 238° |
| 2026-05-04 16:00 | 34.36822 | -14.63390 | 37141 ft | 396 kts | 239° |
| 2026-05-04 16:00 | 34.33872 | -14.69038 | 37122 ft | 397 kts | 239° |
| 2026-05-04 16:01 | 34.30909 | -14.74687 | 37124 ft | 398 kts | 238° |
| 2026-05-04 16:01 | 34.27933 | -14.80347 | 37132 ft | 399 kts | 238° |
| 2026-05-04 16:02 | 34.24960 | -14.86020 | 37137 ft | 399 kts | 238° |
| 2026-05-04 16:03 | 34.20985 | -14.93566 | 37030 ft | 401 kts | 238° |
| 2026-05-04 16:03 | 34.19486 | -14.96407 | 36759 ft | 401 kts | 238° |
| 2026-05-04 16:03 | 34.17494 | -15.00180 | 36415 ft | 402 kts | 238° |
| 2026-05-04 16:03 | 34.15984 | -15.03036 | 36158 ft | 403 kts | 238° |
| 2026-05-04 16:04 | 34.14965 | -15.04964 | 35992 ft | 403 kts | 238° |
| 2026-05-04 16:04 | 34.11934 | -15.10682 | 35495 ft | 404 kts | 239° |
| 2026-05-04 16:04 | 34.10438 | -15.13504 | 35262 ft | 405 kts | 239° |
| 2026-05-04 16:05 | 34.08917 | -15.16370 | 35003 ft | 405 kts | 239° |
| 2026-05-04 16:05 | 34.07393 | -15.19234 | 34760 ft | 406 kts | 239° |
| 2026-05-04 16:05 | 34.04334 | -15.24984 | 34286 ft | 407 kts | 239° |
| 2026-05-04 16:06 | 34.02807 | -15.27858 | 34012 ft | 408 kts | 239° |
| 2026-05-04 16:06 | 33.98152 | -15.36616 | 33214 ft | 416 kts | 239° |
| 2026-05-04 16:07 | 33.96587 | -15.39552 | 32950 ft | 417 kts | 239° |
| 2026-05-04 16:07 | 33.91884 | -15.48349 | 32139 ft | 419 kts | 238° |
| 2026-05-04 16:08 | 33.90294 | -15.51308 | 31170 ft | 424 kts | 238° |
| 2026-05-04 16:08 | 33.85544 | -15.60156 | 29239 ft | 411 kts | 238° |
| 2026-05-04 16:09 | 33.82484 | -15.65852 | 28107 ft | 400 kts | 238° |
| 2026-05-04 16:09 | 33.79488 | -15.71403 | 27015 ft | 391 kts | 238° |
| 2026-05-04 16:10 | 33.76555 | -15.76838 | 25943 ft | 384 kts | 238° |
| 2026-05-04 16:11 | 33.72252 | -15.84812 | 24387 ft | 374 kts | 238° |
| 2026-05-04 16:11 | 33.70837 | -15.87426 | 23892 ft | 372 kts | 238° |
| 2026-05-04 16:12 | 33.66415 | -15.94838 | 22434 ft | 361 kts | 226° |
| 2026-05-04 16:12 | 33.60157 | -16.00012 | 21073 ft | 375 kts | 215° |
| 2026-05-04 16:13 | 33.55756 | -16.03393 | 20389 ft | 375 kts | 215° |
| 2026-05-04 16:13 | 33.51371 | -16.06760 | 19895 ft | 373 kts | 215° |
| 2026-05-04 16:14 | 33.47054 | -16.10058 | 19105 ft | 365 kts | 215° |
| 2026-05-04 16:14 | 33.42810 | -16.13292 | 18140 ft | 362 kts | 215° |
| 2026-05-04 16:15 | 33.36511 | -16.18099 | 16723 ft | 356 kts | 214° |
| 2026-05-04 16:16 | 33.32316 | -16.21301 | 15766 ft | 357 kts | 214° |
| 2026-05-04 16:16 | 33.26043 | -16.26080 | 14350 ft | 354 kts | 214° |
| 2026-05-04 16:17 | 33.21904 | -16.29224 | 13362 ft | 350 kts | 214° |
| 2026-05-04 16:18 | 33.15833 | -16.33820 | 11936 ft | 344 kts | 213° |
| 2026-05-04 16:18 | 33.13794 | -16.35373 | 11427 ft | 351 kts | 214° |
| 2026-05-04 16:19 | 33.07723 | -16.39962 | 10467 ft | 326 kts | 213° |
| 2026-05-04 16:19 | 33.04026 | -16.42746 | 10214 ft | 302 kts | 213° |
| 2026-05-04 16:20 | 32.98892 | -16.46626 | 9360 ft | 287 kts | 213° |
| 2026-05-04 16:20 | 32.95575 | -16.49130 | 8934 ft | 272 kts | 213° |
| 2026-05-04 16:21 | 32.91256 | -16.52890 | 8543 ft | 241 kts | 223° |
| 2026-05-04 16:22 | 32.88822 | -16.55490 | 8080 ft | 232 kts | 222° |
| 2026-05-04 16:22 | 32.85719 | -16.59772 | 7173 ft | 228 kts | 248° |
| 2026-05-04 16:23 | 32.83843 | -16.64826 | 6091 ft | 230 kts | 224° |
| 2026-05-04 16:24 | 32.77689 | -16.68793 | 3433 ft | 273 kts | 206° |
| 2026-05-04 16:25 | 32.74302 | -16.70778 | 2564 ft | 256 kts | 207° |
| 2026-05-04 16:26 | 32.69015 | -16.73962 | 1492 ft | 181 kts | 204° |
| 2026-05-04 16:26 | 32.66570 | -16.76222 | 1506 ft | 144 kts | 266° |
| 2026-05-04 16:27 | 32.66735 | -16.78562 | 849 ft | 143 kts | 272° |
| 2026-05-04 16:28 | 32.69070 | -16.78297 | 205 ft | 148 kts | 47° |
| 2026-05-04 16:28 | 32.70337 | -16.76803 | 176 ft | 35 kts | 43° |
| 2026-05-04 16:29 | 32.70254 | -16.76903 | 176 ft | 14 kts | 223° |
| 2026-05-04 16:30 | 32.70012 | -16.77175 | 176 ft | 14 kts | 204° |
| 2026-05-04 16:31 | 32.69813 | -16.77211 | 176 ft | 15 kts | 225° |
| 2026-05-04 16:31 | 32.69642 | -16.77351 | 176 ft | 12 kts | 139° |